長崎空港の過去48時間の天気

長崎空港 (Nagasaki)

現在時刻: 4/26 20:12 JST (4/26 11:12 UTC) 以下の時間は現地時間です。

過去48時間のMETAR気象情報
時間 風向 風速(m/s) 視程 気温(℃) 湿度(%) 気圧(hPa) 天気現象
26 20:00 南東 3 10km以上 17 72 1012
26 19:00 西南西 2 10km以上 19 52 1011
26 18:00 西 2 10km以上 20 46 1011
26 17:00 西 2 10km以上 21 40 1011
26 16:00 3 10km以上 21 38 1011
26 15:00 3 10km以上 22 33 1011
26 14:00 不定 1 10km以上 21 33 1012
26 13:00 南西 2 10km以上 21 38 1012
26 12:00 南南西 2 10km以上 19 46 1012
26 11:00 2 10km以上 18 52 1013
26 10:00 2 10km以上 16 63 1014
26 09:00 南南東 2 10km以上 14 67 1014
26 08:00 不定 1 10km以上 13 67 1014
26 07:00 不定 1 10km以上 11 82 1013
26 06:10 2 10km以上 11 76 1012
25 21:00 8 10km以上 13 77 1012
25 20:00 7 10km以上 14 77 1011
25 19:00 7 10km以上 15 77 1010
25 18:00 8 10km以上 15 77 1010
25 17:00 7 10km以上 16 72 1010
25 16:00 5 10km以上 16 72 1010
25 15:00 5 10km以上 17 68 1010
25 14:00 5 10km以上 16 72 1010
25 13:00 5 10km以上 17 72 1011
25 12:00 7 10km以上 17 68 1011
25 11:00 7 10km以上 16 72 1011
25 10:00 7 10km以上 15 77 1011
25 09:00 6 10km以上 15 77 1011
25 08:00 6 10km以上 14 82 1010
25 07:00 6 10km以上 14 82 1009
25 06:10 6 10km以上 14 82 1008
24 21:38 5 10km以上 15 88 1005
24 21:00 10 10km以上 15 88 1005
24 20:29 9 6,000m 15 94 1005 弱いしゅう雨
RJFU 261100Z 14005KT CAVOK 17/12 Q1012
RJFU 261000Z 24003KT CAVOK 19/09 Q1011
RJFU 260900Z 26004KT CAVOK 20/08 Q1011
RJFU 260800Z 26004KT CAVOK 21/07 Q1011
RJFU 260700Z 35005KT CAVOK 21/06 Q1011
RJFU 260600Z 36005KT 270V020 CAVOK 22/05 Q1011
RJFU 260500Z VRB01KT CAVOK 21/04 Q1012
RJFU 260400Z 22004KT 170V270 CAVOK 21/06 Q1012
RJFU 260300Z 21004KT 180V270 CAVOK 19/07 Q1012
RJFU 260200Z 18003KT CAVOK 18/08 Q1013
RJFU 260100Z 18004KT CAVOK 16/09 Q1014
RJFU 260000Z 16003KT CAVOK 14/08 Q1014
RJFU 252300Z VRB02KT CAVOK 13/07 Q1014
RJFU 252200Z VRB02KT CAVOK 11/08 Q1013
RJFU 252110Z 08004KT 020V120 9999 FEW010 BKN/// 11/07 Q1012 RMK 1CU010 A2991
RJFU 251200Z 35015KT 9999 FEW030 13/09 Q1012
RJFU 251100Z 35013KT 9999 FEW025 SCT/// 14/10 Q1011
RJFU 251000Z 36013KT 9999 FEW020 SCT025 BKN030 15/11 Q1010
RJFU 250900Z 36015KT 9999 FEW020 BKN030 BKN035 15/11 Q1010
RJFU 250800Z 35013KT 9999 FEW020 BKN030 BKN035 16/11 Q1010
RJFU 250700Z 01009KT 9999 FEW025 BKN030 BKN040 16/11 Q1010
RJFU 250600Z 35010KT 9999 FEW020 BKN030 BKN040 17/11 Q1010
RJFU 250500Z 35010KT 300V010 9999 FEW025 BKN030 BKN040 16/11 Q1010
RJFU 250400Z 35010KT 9999 FEW025 BKN030 BKN/// 17/12 Q1011
RJFU 250300Z 35013KT 9999 FEW020 SCT025 BKN030 17/11 Q1011
RJFU 250200Z 36013KT 9999 FEW020 SCT025 BKN030 16/11 Q1011
RJFU 250100Z 36014KT 9999 FEW015 SCT020 BKN030 15/11 Q1011
RJFU 250000Z 36011KT 9999 FEW015 BKN020 BKN025 15/11 Q1011
RJFU 242300Z 01011KT 9999 FEW015 BKN020 BKN025 14/11 Q1010
RJFU 242200Z 01012KT 9999 FEW010 BKN015 BKN020 14/11 Q1009
RJFU 242110Z 36012KT 9999 FEW010 BKN015 BKN020 14/11 Q1008 RMK 1CU010 6CU015 7CU020 A2979
RJFU 241238Z 35010KT 9999 FEW010 SCT035 BKN080 15/13 Q1005 RMK 1CU010 3CU035 6AC080 A2969
RJFU 241200Z 35020KT 9999 FEW010 BKN015 BKN035 15/13 Q1005
RJFU 241129Z 35018KT 6000 -SHRA FEW005 SCT015 BKN025 15/14 Q1005 RMK 1ST005 3CU015 7CU025 A2968